Time;durP1;ratioP1;P1;durP2;ratioP2;P2;SDS_P1;SDS_P2;PMS_P1;PMS_P2;Temp;Humidity;BMP_temperature;BMP_pressure;BME280_temperature;BME280_humidity;BME280_pressure;Samples;Min_cycle;Max_cycle;Signal;HPM_P1;HPM_P2
2020/12/02 00:00:28;;;;;;;4.68;3.28;;;11.70;99.90;;;;;;5030972;28;20397;-82
2020/12/02 00:02:59;;;;;;;10.48;4.68;;;11.70;99.90;;;;;;5032297;28;20132;-84
2020/12/02 00:05:27;;;;;;;6.75;3.63;;;11.70;99.90;;;;;;5032246;28;20087;-82
2020/12/02 00:08:06;;;;;;;7.78;3.67;;;11.70;99.90;;;;;;5048304;28;20060;-82
2020/12/02 00:10:32;;;;;;;9.35;4.00;;;11.70;99.90;;;;;;5065170;28;20047;-83
2020/12/02 00:12:58;;;;;;;7.65;3.25;;;11.70;99.90;;;;;;5048661;28;20028;-83
2020/12/02 00:15:25;;;;;;;6.85;3.83;;;11.70;99.90;;;;;;5048556;28;20024;-83
2020/12/02 00:17:58;;;;;;;10.60;4.93;;;11.60;99.90;;;;;;5032073;28;20531;-84
2020/12/02 00:20:24;;;;;;;;;;;11.60;99.90;;;;;;5048969;28;20424;-85
2020/12/02 00:22:51;;;;;;;5.53;2.80;;;11.60;99.90;;;;;;5048427;28;19909;-84
2020/12/02 00:25:17;;;;;;;5.88;2.95;;;11.60;99.90;;;;;;5048697;28;20043;-83
2020/12/02 00:27:44;;;;;;;5.45;2.85;;;11.50;99.90;;;;;;5048465;28;20068;-83
2020/12/02 00:30:12;;;;;;;7.53;3.30;;;11.50;99.90;;;;;;5048557;28;20029;-83
2020/12/02 00:32:43;;;;;;;6.00;3.17;;;11.60;99.90;;;;;;5031078;28;20385;-83
2020/12/02 00:35:18;;;;;;;10.68;3.45;;;11.60;99.90;;;;;;5031851;28;20111;-84
2020/12/02 00:37:49;;;;;;;7.30;3.58;;;11.60;99.90;;;;;;5048470;28;20040;-83
2020/12/02 00:40:15;;;;;;;15.20;3.35;;;11.60;99.90;;;;;;5048405;28;20079;-83
2020/12/02 00:42:42;;;;;;;4.75;2.72;;;11.60;99.90;;;;;;5048305;28;20020;-84
2020/12/02 00:45:09;;;;;;;7.60;2.58;;;11.70;99.90;;;;;;5048559;28;20436;-83
2020/12/02 00:47:37;;;;;;;5.15;2.85;;;11.70;99.90;;;;;;5048101;28;20064;-83
2020/12/02 00:50:08;;;;;;;5.60;2.70;;;11.70;99.90;;;;;;5048393;28;20454;-83
2020/12/02 00:52:35;;;;;;;3.58;2.15;;;11.80;99.90;;;;;;5031379;28;20060;-83
2020/12/02 00:55:02;;;;;;;7.13;2.80;;;11.80;99.90;;;;;;5031732;28;20083;-83
2020/12/02 00:57:33;;;;;;;3.95;2.25;;;11.80;99.90;;;;;;5048323;28;20037;-82
2020/12/02 01:00:00;;;;;;;5.15;2.55;;;11.80;99.90;;;;;;5047806;28;20025;-83
2020/12/02 01:02:37;;;;;;;5.57;2.30;;;11.80;99.90;;;;;;5048068;28;20033;-83
2020/12/02 01:05:12;;;;;;;6.93;2.83;;;11.80;99.90;;;;;;5033163;28;20108;-83
2020/12/02 01:07:43;;;;;;;4.32;3.03;;;11.80;99.90;;;;;;5031044;28;20148;-84
2020/12/02 01:10:11;;;;;;;4.82;2.08;;;11.90;99.90;;;;;;5031261;28;20040;-84
2020/12/02 01:12:38;;;;;;;3.67;2.33;;;11.80;99.90;;;;;;5049161;28;20330;-84
2020/12/02 01:15:09;;;;;;;4.75;2.28;;;11.90;99.90;;;;;;5047854;28;20041;-83
2020/12/02 01:17:36;;;;;;;6.15;2.67;;;11.90;99.90;;;;;;5048604;28;20036;-83
2020/12/02 01:20:07;;;;;;;4.53;2.45;;;11.90;99.90;;;;;;5049125;28;20097;-84
2020/12/02 01:22:39;;;;;;;4.40;2.38;;;11.90;99.90;;;;;;5049319;28;20446;-83
2020/12/02 01:25:07;;;;;;;6.60;2.75;;;12.00;99.90;;;;;;5047939;28;20484;-83
2020/12/02 01:27:55;;;;;;;4.47;2.83;;;12.00;99.90;;;;;;5031191;28;20485;-84
2020/12/02 01:30:21;;;;;;;3.22;1.90;;;12.10;99.90;;;;;;5027786;28;20037;-83
2020/12/02 01:32:49;;;;;;;6.40;2.67;;;12.10;99.90;;;;;;5027681;28;20040;-82
2020/12/02 01:35:20;;;;;;;2.97;2.03;;;12.10;99.90;;;;;;5029509;28;20178;-82
2020/12/02 01:37:50;;;;;;;3.38;1.90;;;12.10;99.90;;;;;;5047565;28;20527;-84
2020/12/02 01:40:24;;;;;;;6.35;2.35;;;12.20;99.90;;;;;;5047569;28;20037;-82
2020/12/02 01:43:00;;;;;;;5.35;2.60;;;12.10;99.90;;;;;;5047499;28;20067;-83
2020/12/02 01:45:32;;;;;;;5.55;2.50;;;12.20;99.90;;;;;;5050947;28;20044;-84
2020/12/02 01:48:05;;;;;;;4.80;2.85;;;12.20;99.90;;;;;;5035144;28;20056;-82
2020/12/02 01:50:48;;;;;;;4.20;2.53;;;12.20;99.90;;;;;;5051329;28;20114;-82
2020/12/02 01:53:38;;;;;;;3.95;2.47;;;12.20;99.90;;;;;;5051639;28;20123;-83
2020/12/02 01:56:15;;;;;;;4.53;2.17;;;12.20;99.90;;;;;;5034826;28;20041;-82
2020/12/02 01:59:07;;;;;;;5.20;3.33;;;12.20;99.90;;;;;;5067456;28;20029;-81
2020/12/02 02:01:59;;;;;;;6.55;2.70;;;12.20;99.90;;;;;;5052860;28;20107;-83
2020/12/02 02:04:42;;;;;;;4.72;2.42;;;12.20;99.90;;;;;;5035062;28;20071;-84
2020/12/02 02:07:18;;;;;;;4.22;2.30;;;12.20;99.90;;;;;;5050944;28;20049;-83
2020/12/02 02:09:49;;;;;;;6.00;2.47;;;12.20;99.90;;;;;;5051179;28;20033;-82
2020/12/02 02:12:47;;;;;;;6.03;2.92;;;12.20;99.90;;;;;;5051434;28;20480;-82
2020/12/02 02:15:49;;;;;;;6.63;2.70;;;12.30;99.90;;;;;;5051365;28;20060;-83
2020/12/02 02:18:29;;;;;;;5.50;2.67;;;12.30;99.90;;;;;;5050943;28;20124;-84
2020/12/02 02:21:06;;;;;;;7.50;3.20;;;12.30;99.90;;;;;;5050812;28;20036;-84
2020/12/02 02:23:32;;;;;;;6.30;2.53;;;12.30;99.90;;;;;;5050365;28;20068;-82
2020/12/02 02:26:14;;;;;;;5.80;2.85;;;12.40;99.90;;;;;;5033909;28;20087;-83
2020/12/02 02:28:54;;;;;;;7.10;2.63;;;12.30;99.90;;;;;;5050799;28;20083;-83
2020/12/02 02:31:24;;;;;;;4.68;2.83;;;12.40;99.90;;;;;;5040025;28;20131;-82
2020/12/02 02:33:51;;;;;;;8.02;2.83;;;12.40;99.90;;;;;;5050911;28;20931;-84
2020/12/02 02:36:21;;;;;;;5.93;3.17;;;12.40;99.90;;;;;;5050828;28;20055;-84
2020/12/02 02:38:48;;;;;;;9.18;3.53;;;12.40;99.90;;;;;;5050786;28;20530;-83
2020/12/02 02:41:14;;;;;;;7.50;3.17;;;12.40;99.90;;;;;;5050368;28;20043;-83
2020/12/02 02:43:40;;;;;;;4.47;3.00;;;12.40;99.90;;;;;;5033783;28;20028;-83
2020/12/02 02:46:07;;;;;;;3.80;2.33;;;12.40;99.90;;;;;;5033892;28;20056;-82
2020/12/02 02:48:35;;;;;;;6.57;2.78;;;12.50;99.90;;;;;;5051850;28;20037;-83
2020/12/02 02:51:01;;;;;;;5.95;2.50;;;12.50;99.90;;;;;;5050566;28;20040;-83
2020/12/02 02:53:28;;;;;;;4.63;2.92;;;12.50;99.90;;;;;;5050403;28;20397;-83
2020/12/02 02:55:54;;;;;;;5.43;2.53;;;12.50;99.90;;;;;;5049536;28;20025;-83
2020/12/02 02:58:25;;;;;;;4.20;2.50;;;12.50;99.90;;;;;;5033789;28;20440;-84
2020/12/02 03:00:56;;;;;;;4.90;2.53;;;12.50;99.90;;;;;;5033917;28;20059;-83
2020/12/02 03:03:22;;;;;;;4.07;2.67;;;12.50;99.90;;;;;;5050551;28;20091;-82
2020/12/02 03:05:49;;;;;;;3.53;2.53;;;12.50;99.90;;;;;;5049801;28;20062;-83
2020/12/02 03:08:17;;;;;;;4.50;2.50;;;12.50;99.90;;;;;;5066428;28;20092;-83
2020/12/02 03:10:44;;;;;;;7.15;2.63;;;12.50;99.90;;;;;;5050125;28;20062;-84
2020/12/02 03:13:29;;;;;;;7.20;2.90;;;12.50;99.90;;;;;;5049665;28;20025;-83
2020/12/02 03:15:56;;;;;;;5.93;2.25;;;12.50;99.90;;;;;;5050312;28;20091;-83
2020/12/02 03:18:24;;;;;;;6.15;2.45;;;12.60;99.90;;;;;;5050230;28;20025;-82
2020/12/02 03:20:59;;;;;;;7.25;2.42;;;12.60;99.90;;;;;;5050069;28;20115;-83
2020/12/02 03:23:27;;;;;;;4.28;2.15;;;12.60;99.90;;;;;;5049886;28;20033;-84
2020/12/02 03:25:54;;;;;;;5.22;2.10;;;12.60;99.90;;;;;;5049830;28;20079;-83
2020/12/02 03:28:21;;;;;;;4.50;2.47;;;12.60;99.90;;;;;;5032994;28;20497;-83
2020/12/02 03:30:47;;;;;;;5.28;2.53;;;12.60;99.90;;;;;;5049776;28;20023;-82
2020/12/02 03:33:16;;;;;;;5.57;2.75;;;12.70;99.90;;;;;;5051130;28;20035;-83
2020/12/02 03:35:43;;;;;;;7.50;3.00;;;12.60;99.90;;;;;;5049819;28;20473;-83
2020/12/02 03:38:09;;;;;;;4.45;2.70;;;12.70;99.90;;;;;;5049543;28;20526;-82
2020/12/02 03:40:36;;;;;;;4.57;2.65;;;12.70;99.90;;;;;;5049828;28;20438;-83
2020/12/02 03:43:02;;;;;;;6.78;2.22;;;12.70;99.90;;;;;;5050364;28;20029;-82
2020/12/02 03:45:28;;;;;;;5.97;2.75;;;12.70;99.90;;;;;;5049038;28;20165;-84
2020/12/02 03:47:54;;;;;;;6.35;2.30;;;12.70;99.90;;;;;;5048134;28;20132;-82
2020/12/02 03:50:20;;;;;;;6.35;2.45;;;12.70;99.90;;;;;;5048931;28;20043;-82
2020/12/02 03:52:46;;;;;;;4.50;2.92;;;12.70;99.90;;;;;;5047264;28;20685;-82
2020/12/02 03:55:12;;;;;;;5.70;2.17;;;12.70;99.90;;;;;;5047225;28;20112;-84
2020/12/02 03:57:38;;;;;;;4.45;2.33;;;12.70;99.90;;;;;;5048547;28;20029;-82
2020/12/02 04:00:09;;;;;;;4.55;2.20;;;12.70;99.90;;;;;;5047163;28;20041;-83
2020/12/02 04:02:35;;;;;;;2.55;1.67;;;12.70;99.90;;;;;;5047095;28;20078;-81
2020/12/02 04:05:02;;;;;;;5.50;2.78;;;12.70;99.90;;;;;;5048467;28;20060;-81
2020/12/02 04:07:28;;;;;;;6.88;1.95;;;12.70;99.90;;;;;;5047923;28;20053;-82
2020/12/02 04:09:54;;;;;;;5.00;2.25;;;12.70;99.90;;;;;;5048902;28;20036;-84
2020/12/02 04:12:20;;;;;;;6.28;2.10;;;12.60;99.90;;;;;;5032344;28;20021;-83
2020/12/02 04:14:46;;;;;;;8.32;3.45;;;12.70;99.90;;;;;;5048527;28;20029;-83
2020/12/02 04:17:12;;;;;;;5.35;2.10;;;12.70;99.90;;;;;;5048891;28;20386;-84
2020/12/02 04:19:39;;;;;;;5.15;2.30;;;12.70;99.90;;;;;;5048978;28;20481;-84
2020/12/02 04:22:05;;;;;;;2.97;1.60;;;12.70;99.90;;;;;;5048872;28;20130;-82
2020/12/02 04:24:31;;;;;;;3.45;1.80;;;12.70;99.90;;;;;;5049751;28;20436;-83
2020/12/02 04:26:57;;;;;;;4.47;2.40;;;12.70;99.90;;;;;;5047337;28;20029;-84
2020/12/02 04:29:23;;;;;;;5.55;1.90;;;12.60;99.90;;;;;;5065384;28;20028;-83
2020/12/02 04:31:49;;;;;;;2.97;1.60;;;12.60;99.90;;;;;;5065306;28;20033;-84
2020/12/02 04:34:15;;;;;;;3.95;2.17;;;12.70;99.90;;;;;;5048453;28;20025;-82
2020/12/02 04:36:45;;;;;;;4.22;2.47;;;12.60;99.90;;;;;;5048341;28;20055;-83
2020/12/02 04:39:11;;;;;;;3.08;1.67;;;12.60;99.90;;;;;;5031885;28;20511;-83
2020/12/02 04:41:37;;;;;;;3.90;2.05;;;12.50;99.90;;;;;;5031804;28;20367;-84
2020/12/02 04:44:04;;;;;;;3.78;1.90;;;12.50;99.90;;;;;;5048503;28;20055;-83
2020/12/02 04:46:33;;;;;;;5.90;2.17;;;12.50;99.90;;;;;;5048129;28;20523;-83
2020/12/02 04:49:20;;;;;;;3.97;1.70;;;12.50;99.90;;;;;;5048309;28;20064;-83
2020/12/02 04:51:50;;;;;;;3.35;1.23;;;12.50;99.90;;;;;;5048306;28;20108;-83
2020/12/02 04:54:17;;;;;;;2.30;1.60;;;12.40;99.90;;;;;;5048302;28;20048;-82
2020/12/02 04:56:47;;;;;;;2.45;1.70;;;12.40;99.90;;;;;;5047022;28;20481;-81
2020/12/02 04:59:13;;;;;;;2.47;1.63;;;12.50;99.90;;;;;;5047617;28;20033;-83
2020/12/02 05:01:54;;;;;;;5.13;2.70;;;12.40;99.90;;;;;;5048076;28;20029;-83
2020/12/02 05:04:27;;;;;;;9.50;4.22;;;12.50;99.90;;;;;;5048156;28;20158;-84
2020/12/02 05:07:16;;;;;;;10.65;5.93;;;12.40;99.90;;;;;;5047937;28;20048;-84
2020/12/02 05:10:07;;;;;;;15.05;7.70;;;12.40;99.90;;;;;;5048310;28;20493;-84
2020/12/02 05:12:39;;;;;;;13.05;7.45;;;12.50;99.90;;;;;;5031216;28;20025;-83
2020/12/02 05:15:27;;;;;;;15.60;7.80;;;12.50;99.90;;;;;;5048042;28;20049;-83
2020/12/02 05:18:14;;;;;;;15.20;7.05;;;12.50;99.90;;;;;;5028180;28;20040;-82
2020/12/02 05:20:41;;;;;;;14.43;6.55;;;12.50;99.90;;;;;;5011389;28;20552;-83
2020/12/02 05:23:20;;;;;;;10.63;5.78;;;12.50;99.90;;;;;;5044595;28;20048;-82
2020/12/02 05:25:46;;;;;;;11.02;5.72;;;12.50;99.90;;;;;;5028381;28;20040;-82
2020/12/02 05:28:25;;;;;;;9.15;4.50;;;12.50;99.90;;;;;;5048805;28;20036;-83
2020/12/02 05:31:14;;;;;;;7.90;3.38;;;12.50;99.90;;;;;;5047556;28;20033;-82
2020/12/02 05:33:40;;;;;;;7.20;2.20;;;12.50;99.90;;;;;;5047821;28;20095;-84
2020/12/02 05:36:28;;;;;;;8.15;1.88;;;12.50;99.90;;;;;;5049061;28;20057;-84
2020/12/02 05:39:27;;;;;;;4.15;1.95;;;12.50;99.90;;;;;;5028322;28;20046;-82
2020/12/02 05:41:55;;;;;;;7.15;2.20;;;12.50;99.90;;;;;;5025021;28;20057;-82
2020/12/02 05:44:36;;;;;;;4.93;2.08;;;12.50;99.90;;;;;;5029175;28;20060;-82
2020/12/02 05:47:09;;;;;;;5.40;2.42;;;12.50;99.90;;;;;;5032209;28;20028;-84
2020/12/02 05:50:01;;;;;;;7.10;2.45;;;12.50;99.90;;;;;;5048703;28;20043;-83
2020/12/02 05:52:35;;;;;;;3.13;1.95;;;12.50;99.90;;;;;;5047528;28;20041;-83
2020/12/02 05:55:10;;;;;;;6.30;1.95;;;12.50;99.90;;;;;;5048860;28;20029;-82
2020/12/02 05:57:42;;;;;;;7.82;2.08;;;12.50;99.90;;;;;;5030578;28;20413;-83
2020/12/02 06:00:12;;;;;;;14.80;2.97;;;12.50;99.90;;;;;;5048608;28;20164;-82
2020/12/02 06:02:38;;;;;;;6.22;2.08;;;12.50;99.90;;;;;;5031126;28;20065;-84
2020/12/02 06:05:11;;;;;;;6.45;2.13;;;12.50;99.90;;;;;;5047212;28;20017;-82
2020/12/02 06:07:55;;;;;;;5.50;1.40;;;12.40;99.90;;;;;;5046584;28;20504;-83
2020/12/02 06:10:55;;;;;;;6.95;2.03;;;12.40;99.90;;;;;;5047287;28;20033;-83
2020/12/02 06:13:40;;;;;;;9.88;2.95;;;12.40;99.90;;;;;;5027503;28;20064;-82
2020/12/02 06:16:09;;;;;;;2.92;1.73;;;12.40;99.90;;;;;;5027700;28;20057;-84
2020/12/02 06:18:37;;;;;;;6.05;1.85;;;12.40;99.90;;;;;;5033963;28;20040;-83
2020/12/02 06:21:03;;;;;;;3.35;1.73;;;12.40;99.90;;;;;;5048813;28;20083;-83
2020/12/02 06:23:40;;;;;;;5.32;1.80;;;12.50;99.90;;;;;;5047315;28;20481;-82
2020/12/02 06:26:06;;;;;;;6.25;2.28;;;12.50;99.90;;;;;;5048393;28;20381;-83
2020/12/02 06:28:32;;;;;;;5.78;2.60;;;12.50;99.90;;;;;;5046821;28;20036;-82
2020/12/02 06:31:04;;;;;;;8.15;2.75;;;12.40;99.90;;;;;;5048130;28;20428;-82
2020/12/02 06:33:34;;;;;;;6.65;2.00;;;12.50;99.90;;;;;;5050735;28;20029;-84
2020/12/02 06:36:24;;;;;;;9.75;2.70;;;12.50;99.90;;;;;;5050740;28;20037;-82
2020/12/02 06:39:05;;;;;;;4.53;1.90;;;12.50;99.90;;;;;;5050270;28;20025;-81
2020/12/02 06:41:38;;;;;;;5.10;2.13;;;12.60;99.90;;;;;;5050654;28;20524;-84
2020/12/02 06:44:07;;;;;;;7.63;2.55;;;12.60;99.90;;;;;;5050788;28;20033;-84
2020/12/02 06:46:54;;;;;;;6.80;2.47;;;12.70;99.90;;;;;;5033853;28;20099;-84
2020/12/02 06:49:26;;;;;;;7.57;2.45;;;12.70;99.90;;;;;;5033607;28;20044;-82
2020/12/02 06:52:21;;;;;;;6.85;3.22;;;12.70;99.90;;;;;;5050948;28;20045;-82
2020/12/02 06:54:47;;;;;;;6.05;2.38;;;12.80;99.90;;;;;;5050295;28;20048;-84
2020/12/02 06:57:21;;;;;;;6.43;2.45;;;12.90;99.90;;;;;;5033891;28;20037;-83
2020/12/02 06:59:57;;;;;;;7.72;3.33;;;13.00;99.90;;;;;;5048029;28;20672;-83
2020/12/02 07:03:02;;;;;;;8.02;2.70;;;13.00;99.90;;;;;;5051616;28;20123;-82
2020/12/02 07:05:36;;;;;;;5.97;2.47;;;13.10;99.90;;;;;;5033435;28;20065;-82
2020/12/02 07:08:14;;;;;;;7.68;2.08;;;13.20;99.90;;;;;;5049845;28;20107;-82
2020/12/02 07:10:51;;;;;;;3.58;2.13;;;13.20;99.90;;;;;;5049818;28;20591;-83
2020/12/02 07:13:17;;;;;;;7.72;2.30;;;13.30;99.90;;;;;;5050114;28;20497;-81
2020/12/02 07:15:43;;;;;;;16.20;2.25;;;13.40;99.90;;;;;;5049986;28;20465;-81
2020/12/02 07:18:16;;;;;;;5.60;2.13;;;13.40;99.90;;;;;;5049820;28;20031;-82
2020/12/02 07:20:47;;;;;;;4.47;1.77;;;13.40;99.90;;;;;;5049697;28;20021;-84
2020/12/02 07:23:18;;;;;;;7.15;2.97;;;13.40;99.90;;;;;;5051096;28;20021;-84
2020/12/02 07:25:44;;;;;;;7.65;2.15;;;13.50;99.90;;;;;;5049905;28;20025;-84
2020/12/02 07:28:20;;;;;;;12.80;2.58;;;13.40;99.90;;;;;;5049631;28;20481;-82
2020/12/02 07:30:46;;;;;;;12.60;2.85;;;13.40;99.90;;;;;;5047756;28;20029;-83
2020/12/02 07:33:25;;;;;;;3.78;1.92;;;13.40;99.90;;;;;;5049719;28;20067;-84
2020/12/02 07:36:15;;;;;;;6.88;1.23;;;13.50;99.90;;;;;;5031128;28;20037;-83
2020/12/02 07:38:43;;;;;;;5.57;2.00;;;13.50;99.90;;;;;;5038841;28;20089;-83
2020/12/02 07:41:17;;;;;;;6.68;1.70;;;13.50;99.90;;;;;;5048893;28;20017;-81
2020/12/02 07:43:47;;;;;;;2.55;1.30;;;13.60;99.90;;;;;;5048568;28;20378;-82
2020/12/02 07:46:14;;;;;;;2.55;1.63;;;13.60;99.90;;;;;;5049241;28;20028;-83
2020/12/02 07:48:41;;;;;;;5.43;2.05;;;13.70;99.90;;;;;;5032377;28;20506;-83
2020/12/02 07:51:23;;;;;;;3.63;1.48;;;13.70;99.90;;;;;;5049453;28;20045;-82
2020/12/02 07:53:49;;;;;;;4.95;1.60;;;13.80;99.90;;;;;;5049805;28;20028;-80
2020/12/02 07:56:41;;;;;;;6.35;2.17;;;13.80;99.90;;;;;;5048917;28;20033;-82
2020/12/02 07:59:24;;;;;;;10.52;1.98;;;13.80;99.90;;;;;;5030097;28;20029;-80
2020/12/02 08:01:57;;;;;;;4.90;1.70;;;13.80;99.90;;;;;;5050038;28;20450;-82
2020/12/02 08:04:23;;;;;;;4.35;2.10;;;13.80;99.90;;;;;;5048230;28;20033;-82
2020/12/02 08:06:59;;;;;;;9.38;2.25;;;13.90;99.90;;;;;;5050016;28;20057;-80
2020/12/02 08:09:25;;;;;;;6.97;2.38;;;13.90;99.90;;;;;;5049803;28;20040;-80
2020/12/02 08:12:07;;;;;;;9.45;2.40;;;13.90;99.90;;;;;;5049389;28;20086;-80
2020/12/02 08:14:40;;;;;;;3.83;1.65;;;14.00;99.90;;;;;;5064025;28;20033;-80
2020/12/02 08:17:20;;;;;;;4.65;1.85;;;14.00;99.90;;;;;;5049555;28;20108;-81
2020/12/02 08:19:50;;;;;;;6.05;3.08;;;14.00;99.90;;;;;;5049502;28;20029;-80
2020/12/02 08:22:25;;;;;;;22.00;2.30;;;14.10;99.90;;;;;;5048399;28;20025;-81
2020/12/02 08:25:11;;;;;;;13.93;3.30;;;14.10;99.90;;;;;;5051659;28;20033;-80
2020/12/02 08:27:37;;;;;;;6.90;2.22;;;14.20;99.90;;;;;;5047971;28;20055;-81
2020/12/02 08:30:15;;;;;;;4.22;2.05;;;14.20;99.90;;;;;;5048128;28;20029;-80
2020/12/02 08:32:53;;;;;;;7.60;2.55;;;14.30;99.90;;;;;;5047934;28;20367;-80
2020/12/02 08:35:36;;;;;;;9.63;3.55;;;14.30;99.90;;;;;;5048835;28;20036;-81
2020/12/02 08:38:02;;;;;;;5.15;2.53;;;14.50;99.90;;;;;;5048056;28;20024;-81
2020/12/02 08:40:41;;;;;;;7.30;3.17;;;14.60;99.90;;;;;;5047921;28;20028;-81
2020/12/02 08:43:30;;;;;;;7.97;2.35;;;14.80;99.90;;;;;;5047896;28;20429;-80
2020/12/02 08:46:07;;;;;;;14.23;3.30;;;15.00;99.90;;;;;;5047717;28;20029;-80
2020/12/02 08:48:34;;;;;;;9.80;3.13;;;15.10;99.90;;;;;;5047771;28;20378;-80
2020/12/02 08:51:00;;;;;;;5.45;2.28;;;15.30;99.90;;;;;;5048447;28;20059;-80
2020/12/02 08:53:29;;;;;;;8.13;1.90;;;15.40;99.90;;;;;;5048764;28;20470;-80
2020/12/02 08:55:56;;;;;;;6.15;1.83;;;15.60;99.90;;;;;;5048565;28;20037;-81
2020/12/02 08:58:23;;;;;;;4.30;1.60;;;15.70;99.90;;;;;;5049125;28;20028;-81
2020/12/02 09:00:49;;;;;;;8.43;2.05;;;15.70;99.90;;;;;;5048992;28;20040;-81
2020/12/02 09:03:16;;;;;;;7.53;1.77;;;15.80;99.90;;;;;;5047335;28;20029;-81
2020/12/02 09:05:42;;;;;;;5.10;2.35;;;15.70;99.90;;;;;;5048382;28;20496;-81
2020/12/02 09:08:08;;;;;;;10.20;1.88;;;15.70;99.90;;;;;;5047380;28;20056;-80
2020/12/02 09:10:34;;;;;;;6.82;2.13;;;15.70;99.90;;;;;;5048998;28;20032;-80
2020/12/02 09:13:01;;;;;;;5.97;2.13;;;15.50;99.90;;;;;;5048881;28;20086;-81
2020/12/02 09:15:27;;;;;;;8.40;2.83;;;15.50;99.90;;;;;;5046746;28;20056;-80
2020/12/02 09:17:54;;;;;;;10.05;2.80;;;15.40;99.90;;;;;;5048644;28;20025;-79
2020/12/02 09:20:22;;;;;;;5.70;1.90;;;15.30;99.90;;;;;;5046727;28;20025;-80
2020/12/02 09:22:49;;;;;;;9.95;1.70;;;15.30;99.90;;;;;;5029607;28;20028;-81
2020/12/02 09:25:16;;;;;;;15.73;3.30;;;15.30;99.90;;;;;;5030525;28;20029;-81
2020/12/02 09:27:42;;;;;;;5.15;1.52;;;15.30;99.90;;;;;;5047094;28;20083;-80
2020/12/02 09:30:09;;;;;;;9.27;1.52;;;15.40;99.90;;;;;;5048767;28;20033;-81
2020/12/02 09:32:35;;;;;;;4.10;1.75;;;15.60;99.90;;;;;;5046908;28;20399;-81
2020/12/02 09:35:02;;;;;;;5.55;1.95;;;15.80;99.90;;;;;;5048272;28;20028;-82
2020/12/02 09:37:29;;;;;;;1.80;1.10;;;16.10;99.90;;;;;;5048616;28;20075;-82
2020/12/02 09:39:55;;;;;;;6.90;2.00;;;16.30;99.90;;;;;;5047084;28;20029;-81
2020/12/02 09:42:49;;;;;;;5.00;1.30;;;16.30;99.90;;;;;;5047263;28;20130;-82
2020/12/02 09:45:26;;;;;;;;;;;16.30;99.90;;;;;;5048835;28;20063;-81
2020/12/02 09:47:54;;;;;;;5.10;1.50;;;16.50;99.90;;;;;;5047128;28;19985;-81
2020/12/02 09:50:20;;;;;;;16.10;2.63;;;16.40;99.90;;;;;;5048414;28;20083;-81
2020/12/02 09:52:49;;;;;;;12.93;1.83;;;16.50;99.90;;;;;;5048669;28;20029;-82
2020/12/02 09:55:24;;;;;;;51.65;6.18;;;16.40;99.90;;;;;;5046552;28;20029;-83
2020/12/02 09:57:53;;;;;;;69.10;6.38;;;16.50;99.90;;;;;;5046367;28;20436;-81
2020/12/02 10:00:22;;;;;;;40.42;6.93;;;16.80;99.90;;;;;;5046976;28;20120;-82
2020/12/02 10:03:07;;;;;;;63.50;5.53;;;16.80;99.90;;;;;;5025583;28;20385;-81
2020/12/02 10:05:38;;;;;;;131.38;12.80;;;17.00;99.90;;;;;;5028763;28;20121;-81
2020/12/02 10:08:07;;;;;;;13.45;3.03;;;17.20;99.90;;;;;;5040593;28;20048;-82
2020/12/02 10:10:41;;;;;;;11.18;2.53;;;17.40;99.90;;;;;;5034372;28;20090;-81
2020/12/02 10:13:26;;;;;;;21.25;2.58;;;17.70;99.90;;;;;;5051998;28;20551;-81
2020/12/02 10:16:18;;;;;;;4.30;1.80;;;17.70;99.90;;;;;;5051926;28;20366;-82
2020/12/02 10:19:02;;;;;;;22.52;4.10;;;17.90;99.90;;;;;;5051484;28;20029;-80
2020/12/02 10:22:01;;;;;;;16.00;2.70;;;18.00;99.90;;;;;;5031928;28;20025;-82
2020/12/02 10:24:36;;;;;;;64.43;8.65;;;18.20;99.90;;;;;;5031961;28;20033;-81
2020/12/02 10:27:24;;;;;;;4.57;1.77;;;17.90;99.90;;;;;;5036603;28;20025;-81
2020/12/02 10:30:25;;;;;;;2.47;1.45;;;17.70;99.90;;;;;;5049805;28;20032;-81
2020/12/02 10:33:23;;;;;;;3.42;1.60;;;17.30;99.90;;;;;;5030256;28;20083;-80
2020/12/02 10:35:50;;;;;;;5.00;1.58;;;17.30;99.90;;;;;;5030610;28;20474;-81
2020/12/02 10:38:33;;;;;;;4.50;1.70;;;17.50;99.90;;;;;;5043799;28;20064;-81
2020/12/02 10:41:29;;;;;;;11.70;2.50;;;17.90;99.90;;;;;;5040024;28;20040;-81
2020/12/02 10:44:17;;;;;;;5.80;2.00;;;18.30;99.90;;;;;;5044384;28;20045;-81
2020/12/02 10:46:50;;;;;;;32.28;3.20;;;18.40;99.90;;;;;;5050079;28;20036;-82
2020/12/02 10:49:31;;;;;;;24.88;3.13;;;18.60;99.90;;;;;;5050686;28;20041;-81
2020/12/02 10:52:02;;;;;;;51.53;5.95;;;18.40;99.90;;;;;;5046623;28;20029;-82
2020/12/02 10:54:34;;;;;;;27.35;4.60;;;18.40;99.90;;;;;;5042495;28;20032;-80
2020/12/02 10:57:09;;;;;;;5.82;1.52;;;18.60;99.90;;;;;;5049906;28;20469;-81
2020/12/02 10:59:35;;;;;;;3.88;1.42;;;18.60;99.90;;;;;;5051044;28;20389;-81
2020/12/02 11:02:11;;;;;;;10.98;2.60;;;18.70;99.90;;;;;;5033274;28;20408;-80
2020/12/02 11:04:37;;;;;;;6.38;1.70;;;18.80;99.90;;;;;;5049809;28;20041;-81
2020/12/02 11:07:25;;;;;;;3.80;1.52;;;18.90;99.90;;;;;;5050791;28;20064;-81
2020/12/02 11:10:03;;;;;;;5.93;2.13;;;19.10;99.90;;;;;;5050898;28;20486;-82
2020/12/02 11:12:47;;;;;;;10.27;2.10;;;19.00;99.90;;;;;;5050653;28;20058;-81
2020/12/02 11:15:45;;;;;;;7.65;1.85;;;18.90;99.90;;;;;;5050677;28;20025;-81
2020/12/02 11:18:33;;;;;;;3.20;1.50;;;18.90;99.90;;;;;;5050171;28;20071;-81
2020/12/02 11:21:24;;;;;;;5.90;1.85;;;18.60;99.90;;;;;;5047806;28;20035;-81
2020/12/02 11:24:09;;;;;;;5.38;1.73;;;18.50;99.90;;;;;;5039394;28;20024;-81
2020/12/02 11:26:38;;;;;;;5.25;2.08;;;18.60;99.90;;;;;;5050672;28;20064;-81
2020/12/02 11:29:08;;;;;;;7.50;2.13;;;18.80;99.90;;;;;;5050461;28;20091;-81
2020/12/02 11:32:07;;;;;;;6.00;2.15;;;19.10;99.90;;;;;;5048556;28;20485;-82
2020/12/02 11:34:39;;;;;;;13.48;2.50;;;18.80;99.90;;;;;;5049076;28;20021;-80
2020/12/02 11:37:13;;;;;;;14.68;2.67;;;18.80;99.90;;;;;;5049134;28;20203;-80
2020/12/02 11:40:02;;;;;;;6.28;2.10;;;19.10;99.90;;;;;;5048368;28;20363;-80
2020/12/02 11:42:40;;;;;;;13.18;2.35;;;19.40;99.90;;;;;;5030446;28;20033;-82
2020/12/02 11:45:20;;;;;;;6.78;1.75;;;19.40;99.90;;;;;;5030334;28;20474;-81
2020/12/02 11:48:16;;;;;;;8.98;2.40;;;19.30;99.90;;;;;;5030180;28;20061;-83
2020/12/02 11:51:18;;;;;;;8.27;1.60;;;19.10;99.90;;;;;;5030166;28;20109;-83
2020/12/02 11:53:49;;;;;;;5.15;2.20;;;19.00;99.90;;;;;;5028790;28;20061;-82
2020/12/02 11:56:47;;;;;;;4.43;1.63;;;19.10;99.90;;;;;;5034228;28;20032;-82
2020/12/02 11:59:17;;;;;;;4.45;2.20;;;19.30;99.90;;;;;;5037177;28;20032;-83
2020/12/02 12:01:56;;;;;;;4.63;1.73;;;19.40;99.90;;;;;;5049763;28;20028;-81
2020/12/02 12:04:37;;;;;;;9.32;3.35;;;19.40;99.90;;;;;;5048767;28;20024;-82
2020/12/02 12:07:25;;;;;;;8.88;2.55;;;19.40;99.90;;;;;;5031451;28;20080;-82
2020/12/02 12:10:01;;;;;;;11.25;2.70;;;19.10;99.90;;;;;;5048348;28;20037;-81
2020/12/02 12:12:38;;;;;;;6.82;1.48;;;18.90;99.90;;;;;;5040882;28;20029;-82
2020/12/02 12:15:28;;;;;;;6.68;1.70;;;19.00;99.90;;;;;;5049454;28;20069;-83
2020/12/02 12:17:56;;;;;;;3.90;2.10;;;19.20;99.90;;;;;;5049079;28;20029;-81
2020/12/02 12:20:31;;;;;;;9.32;1.67;;;19.20;99.90;;;;;;5044879;28;20030;-82
2020/12/02 12:23:28;;;;;;;2.97;1.30;;;19.30;99.90;;;;;;5028415;28;20041;-82
2020/12/02 12:25:56;;;;;;;3.72;1.88;;;19.50;99.90;;;;;;5039856;28;20053;-82
2020/12/02 12:28:29;;;;;;;4.78;1.90;;;19.50;99.90;;;;;;5030585;28;20040;-81
2020/12/02 12:31:06;;;;;;;6.10;1.92;;;19.60;99.90;;;;;;5047880;28;20491;-81
2020/12/02 12:33:40;;;;;;;4.40;1.20;;;19.60;99.90;;;;;;5049413;28;20025;-82
2020/12/02 12:36:20;;;;;;;8.00;1.80;;;19.80;99.90;;;;;;5047869;28;20462;-82
2020/12/02 12:38:57;;;;;;;6.25;1.30;;;19.90;99.90;;;;;;5047843;28;20052;-82
2020/12/02 12:41:35;;;;;;;2.58;1.58;;;20.00;99.90;;;;;;5048053;28;20024;-82
2020/12/02 12:44:11;;;;;;;3.28;1.10;;;20.00;99.90;;;;;;5049467;28;20033;-82
2020/12/02 12:47:03;;;;;;;2.58;1.17;;;19.80;99.90;;;;;;5047809;28;20119;-81
2020/12/02 12:49:31;;;;;;;5.85;1.50;;;19.70;99.90;;;;;;5047851;28;20041;-82
2020/12/02 12:51:59;;;;;;;6.25;2.03;;;19.60;99.90;;;;;;5047927;28;20159;-82
2020/12/02 12:54:26;;;;;;;4.00;1.10;;;19.60;99.90;;;;;;5031128;28;20029;-81
2020/12/02 12:56:55;;;;;;;12.30;1.60;;;19.60;99.90;;;;;;5047545;28;20029;-81
2020/12/02 12:59:22;;;;;;;3.97;1.80;;;19.60;99.90;;;;;;5048855;28;20090;-82
2020/12/02 13:01:50;;;;;;;4.57;1.42;;;19.60;99.90;;;;;;5047434;28;20029;-81
2020/12/02 13:04:19;;;;;;;5.10;1.38;;;19.60;99.90;;;;;;5047877;28;20029;-81
2020/12/02 13:06:48;;;;;;;8.65;2.65;;;19.50;99.90;;;;;;5047559;28;20489;-82
2020/12/02 13:09:25;;;;;;;5.15;2.08;;;19.10;99.90;;;;;;5050547;28;20044;-84
2020/12/02 13:11:54;;;;;;;3.88;1.83;;;18.70;99.90;;;;;;5037887;28;20401;-82
2020/12/02 13:14:47;;;;;;;7.50;2.13;;;18.70;99.90;;;;;;5048454;28;20539;-82
2020/12/02 13:17:22;;;;;;;3.33;1.83;;;18.60;99.90;;;;;;5030362;28;20035;-82
2020/12/02 13:20:19;;;;;;;5.38;1.98;;;19.00;99.90;;;;;;5047199;28;20028;-83